createdAt,value
2017-12-17T00:01:21.703Z,22.40
2017-12-17T00:03:49.323Z,27.70
2017-12-17T00:06:17.746Z,22.25
2017-12-17T00:08:45.388Z,22.15
2017-12-17T00:11:13.023Z,20.62
2017-12-17T00:13:40.726Z,19.90
2017-12-17T00:16:08.376Z,14.93
2017-12-17T00:18:36.799Z,19.17
2017-12-17T00:21:04.440Z,16.65
2017-12-17T00:23:32.123Z,20.45
2017-12-17T00:25:59.850Z,28.83
2017-12-17T00:28:27.938Z,20.50
2017-12-17T00:30:56.457Z,19.23
2017-12-17T00:33:24.087Z,24.50
2017-12-17T00:35:51.746Z,23.45
2017-12-17T00:38:19.571Z,19.95
2017-12-17T00:40:47.190Z,29.02
2017-12-17T00:43:14.851Z,29.12
2017-12-17T00:45:43.249Z,18.05
2017-12-17T00:48:10.869Z,18.62
2017-12-17T00:50:38.527Z,15.73
2017-12-17T00:53:06.149Z,30.50
2017-12-17T00:55:34.573Z,28.55
2017-12-17T00:58:02.194Z,21.83
2017-12-17T01:00:29.842Z,22.10
2017-12-17T01:02:57.505Z,28.60
2017-12-17T01:05:25.142Z,19.17
2017-12-17T01:07:52.796Z,18.80
2017-12-17T01:10:20.434Z,23.70
2017-12-17T01:12:48.053Z,20.70
2017-12-17T01:15:16.519Z,22.85
2017-12-17T01:17:44.149Z,22.13
2017-12-17T01:20:12.568Z,21.45
2017-12-17T01:22:40.191Z,29.05
2017-12-17T01:25:07.822Z,23.15
2017-12-17T01:27:35.480Z,22.90
2017-12-17T01:30:03.121Z,22.55
2017-12-17T01:32:32.237Z,24.15
2017-12-17T01:34:59.873Z,24.75
2017-12-17T01:37:27.533Z,32.70
2017-12-17T01:39:55.162Z,27.33
2017-12-17T01:42:22.779Z,26.55
2017-12-17T01:44:50.438Z,23.70
2017-12-17T01:47:18.061Z,28.42
2017-12-17T01:49:46.489Z,22.80
2017-12-17T01:52:14.109Z,26.58
2017-12-17T01:54:41.737Z,23.25
2017-12-17T01:57:09.390Z,24.83
2017-12-17T01:59:37.006Z,21.42
2017-12-17T02:02:04.665Z,28.48
2017-12-17T02:04:33.046Z,24.02
2017-12-17T02:07:00.665Z,24.58
2017-12-17T02:09:31.030Z,26.48
2017-12-17T02:11:58.647Z,29.50
2017-12-17T02:14:26.302Z,22.77
2017-12-17T02:16:53.942Z,22.75
2017-12-17T02:19:21.562Z,26.50
2017-12-17T02:21:49.994Z,19.90
2017-12-17T02:24:17.620Z,21.87
2017-12-17T02:26:45.278Z,24.58
2017-12-17T02:29:12.898Z,23.17
2017-12-17T02:31:40.527Z,25.83
2017-12-17T02:34:08.189Z,25.27
2017-12-17T02:36:35.825Z,17.23
2017-12-17T02:39:03.526Z,24.87
2017-12-17T02:41:31.147Z,18.30
2017-12-17T02:43:58.766Z,30.65
2017-12-17T02:46:26.423Z,20.30
2017-12-17T02:48:54.054Z,26.87
2017-12-17T02:51:21.704Z,19.10
2017-12-17T02:53:49.333Z,24.63
2017-12-17T02:56:17.066Z,25.73
2017-12-17T02:58:45.519Z,22.05
2017-12-17T03:01:13.137Z,19.15
2017-12-17T03:03:40.800Z,18.75
2017-12-17T03:06:08.426Z,21.12
2017-12-17T03:08:36.121Z,24.73
2017-12-17T03:11:03.786Z,30.02
2017-12-17T03:13:32.173Z,19.50
2017-12-17T03:15:59.839Z,19.80
2017-12-17T03:18:27.467Z,27.98
2017-12-17T03:20:55.089Z,26.42
2017-12-17T03:23:23.532Z,26.90
2017-12-17T03:25:51.185Z,29.05
2017-12-17T03:28:18.807Z,28.00
2017-12-17T03:30:46.541Z,33.35
2017-12-17T03:33:14.178Z,20.98
2017-12-17T03:35:42.243Z,26.87
2017-12-17T03:38:09.930Z,33.10
2017-12-17T03:40:37.542Z,19.67
2017-12-17T03:43:05.210Z,26.62
2017-12-17T03:45:32.871Z,23.55
2017-12-17T03:48:00.504Z,25.90
2017-12-17T03:50:28.184Z,29.00
2017-12-17T03:52:56.577Z,31.55
2017-12-17T03:55:24.200Z,18.95
2017-12-17T03:57:51.862Z,29.67
2017-12-17T04:00:19.507Z,28.20
2017-12-17T04:02:47.199Z,21.25
2017-12-17T04:05:14.830Z,24.80
2017-12-17T04:07:42.478Z,28.30
2017-12-17T04:10:10.138Z,28.50
2017-12-17T04:12:37.818Z,20.55
2017-12-17T04:15:06.229Z,24.00
2017-12-17T04:17:33.890Z,26.30
2017-12-17T04:20:01.658Z,26.83
2017-12-17T04:22:29.318Z,23.20
2017-12-17T04:24:56.941Z,26.70
2017-12-17T04:27:24.613Z,20.25
2017-12-17T04:29:52.348Z,24.63
2017-12-17T04:32:19.966Z,26.70
2017-12-17T04:34:47.636Z,20.17
2017-12-17T04:37:15.308Z,22.40
2017-12-17T04:39:42.967Z,19.30
2017-12-17T04:42:10.610Z,26.62
2017-12-17T04:44:38.249Z,23.55
2017-12-17T04:47:06.691Z,27.10
2017-12-17T04:49:34.311Z,28.58
2017-12-17T04:52:01.970Z,22.05
2017-12-17T04:54:29.611Z,27.45
2017-12-17T04:56:57.298Z,29.10
2017-12-17T04:59:25.753Z,25.80
2017-12-17T05:01:54.142Z,22.65
2017-12-17T05:04:21.925Z,27.27
2017-12-17T05:06:49.590Z,22.75
2017-12-17T05:09:17.230Z,24.10
2017-12-17T05:11:44.881Z,25.37
2017-12-17T05:14:12.515Z,21.60
2017-12-17T05:16:40.665Z,19.58
2017-12-17T05:19:08.298Z,24.90
2017-12-17T05:21:36.075Z,24.95
2017-12-17T05:24:03.727Z,20.75
2017-12-17T05:26:31.387Z,25.70
2017-12-17T05:28:59.830Z,21.70
2017-12-17T05:31:27.471Z,21.37
2017-12-17T05:33:55.120Z,22.58
2017-12-17T05:36:22.803Z,21.67
2017-12-17T05:38:50.437Z,24.17
2017-12-17T05:41:18.150Z,25.40
2017-12-17T05:43:45.790Z,27.75
2017-12-17T05:46:13.426Z,19.62
2017-12-17T05:48:41.085Z,22.33
2017-12-17T05:51:09.540Z,21.70
2017-12-17T05:53:37.201Z,18.55
2017-12-17T05:56:04.839Z,31.35
2017-12-17T05:58:32.469Z,19.55
2017-12-17T06:01:00.155Z,22.87
2017-12-17T06:03:27.804Z,21.52
2017-12-17T06:05:55.498Z,24.42
2017-12-17T06:08:23.891Z,24.55
2017-12-17T06:10:51.533Z,18.23
2017-12-17T06:13:19.185Z,24.65
2017-12-17T06:15:46.815Z,24.05
2017-12-17T06:18:14.486Z,23.23
2017-12-17T06:20:42.105Z,24.83
2017-12-17T06:23:10.504Z,30.65
2017-12-17T06:25:38.266Z,31.90
2017-12-17T06:28:05.894Z,29.65
2017-12-17T06:30:33.537Z,29.05
2017-12-17T06:33:01.188Z,20.15
2017-12-17T06:35:28.842Z,27.83
2017-12-17T06:37:56.496Z,32.92
2017-12-17T06:40:24.125Z,20.35
2017-12-17T06:42:51.921Z,27.25
2017-12-17T06:45:19.549Z,22.48
2017-12-17T06:47:47.198Z,26.15
2017-12-17T06:50:14.865Z,27.60
2017-12-17T06:52:43.418Z,36.42
2017-12-17T06:55:11.090Z,26.70
2017-12-17T06:57:39.504Z,32.05
2017-12-17T07:00:07.286Z,44.40
2017-12-17T07:02:35.051Z,45.42
2017-12-17T07:05:03.473Z,41.78
2017-12-17T07:07:31.137Z,32.97
2017-12-17T07:09:58.756Z,33.15
2017-12-17T07:12:26.373Z,27.60
2017-12-17T07:14:54.183Z,35.13
2017-12-17T07:17:21.805Z,25.45
2017-12-17T07:19:49.480Z,27.20
2017-12-17T07:22:17.106Z,34.15
2017-12-17T07:24:44.723Z,21.87
2017-12-17T07:27:12.386Z,35.08
2017-12-17T07:29:40.011Z,33.33
2017-12-17T07:32:07.717Z,30.52
2017-12-17T07:34:35.394Z,23.45
2017-12-17T07:37:03.112Z,33.70
2017-12-17T07:39:30.866Z,28.35
2017-12-17T07:41:59.270Z,31.98
2017-12-17T07:44:26.945Z,32.50
2017-12-17T07:46:58.458Z,30.65
2017-12-17T07:49:26.188Z,36.30
2017-12-17T07:51:53.865Z,35.85
2017-12-17T07:54:26.641Z,31.58
2017-12-17T07:56:54.874Z,39.78
2017-12-17T07:59:22.498Z,32.45
2017-12-17T08:01:50.914Z,34.50
2017-12-17T08:04:25.484Z,24.50
2017-12-17T08:06:53.167Z,24.23
2017-12-17T08:09:20.927Z,19.50
2017-12-17T08:11:48.621Z,17.45
2017-12-17T08:14:16.355Z,13.75
2017-12-17T08:16:44.862Z,14.95
2017-12-17T08:19:15.118Z,13.27
2017-12-17T08:21:45.242Z,17.73
2017-12-17T08:24:13.669Z,16.05
2017-12-17T08:26:41.416Z,16.58
2017-12-17T08:29:09.070Z,19.23
2017-12-17T08:31:36.728Z,24.27
2017-12-17T08:34:06.647Z,21.23
2017-12-17T08:36:37.041Z,22.87
2017-12-17T08:39:04.675Z,20.50
2017-12-17T08:41:34.411Z,25.55
2017-12-17T08:44:02.080Z,21.67
2017-12-17T08:46:29.718Z,24.52
2017-12-17T08:48:57.395Z,22.00
2017-12-17T08:51:25.041Z,23.00
2017-12-17T08:53:52.672Z,22.00
2017-12-17T08:56:20.377Z,24.98
2017-12-17T08:58:48.010Z,28.83
2017-12-17T09:01:15.709Z,24.48
2017-12-17T09:03:43.345Z,20.88
2017-12-17T09:06:10.974Z,20.40
2017-12-17T09:08:39.405Z,17.45
2017-12-17T09:11:07.035Z,20.98
2017-12-17T09:13:34.697Z,20.88
2017-12-17T09:16:02.364Z,22.05
2017-12-17T09:18:30.027Z,22.30
2017-12-17T09:20:58.464Z,17.85
2017-12-17T09:23:26.134Z,19.80
2017-12-17T09:25:53.854Z,21.65
2017-12-17T09:28:21.518Z,18.45
2017-12-17T09:30:49.207Z,19.90
2017-12-17T09:33:16.909Z,16.87
2017-12-17T09:35:44.528Z,16.85
2017-12-17T09:38:12.311Z,18.95
2017-12-17T09:40:40.746Z,16.52
2017-12-17T09:43:08.378Z,18.23
2017-12-17T09:45:36.050Z,19.35
2017-12-17T09:48:03.670Z,19.83
2017-12-17T09:50:31.350Z,19.10
2017-12-17T09:52:59.528Z,20.90
2017-12-17T09:55:27.198Z,22.83
2017-12-17T09:57:54.918Z,18.65
2017-12-17T10:00:22.549Z,19.35
2017-12-17T10:02:50.497Z,20.62
2017-12-17T10:05:18.122Z,17.62
2017-12-17T10:07:45.806Z,19.35
2017-12-17T10:10:13.473Z,22.13
2017-12-17T10:12:41.910Z,18.08
2017-12-17T10:15:10.944Z,22.10
2017-12-17T10:17:38.617Z,21.27
2017-12-17T10:20:06.241Z,20.60
2017-12-17T10:22:33.906Z,20.00
2017-12-17T10:25:01.542Z,19.65
2017-12-17T10:27:32.133Z,18.23
2017-12-17T10:29:59.749Z,20.85
2017-12-17T10:32:27.376Z,11.20
2017-12-17T10:34:55.041Z,6.75
2017-12-17T10:37:22.684Z,6.60
2017-12-17T10:39:50.463Z,4.90
2017-12-17T10:42:18.845Z,5.07
2017-12-17T10:44:46.489Z,5.53
2017-12-17T10:47:14.135Z,4.85
2017-12-17T10:49:41.750Z,2.75
2017-12-17T10:52:10.154Z,5.25
2017-12-17T10:54:37.893Z,5.57
2017-12-17T10:57:06.576Z,2.60
2017-12-17T10:59:35.499Z,4.90
2017-12-17T11:02:03.130Z,3.75
2017-12-17T11:04:30.918Z,2.70
2017-12-17T11:06:58.559Z,2.83
2017-12-17T11:09:26.183Z,3.17
2017-12-17T11:11:53.889Z,4.32
2017-12-17T11:14:21.524Z,5.78
2017-12-17T11:16:50.160Z,3.72
2017-12-17T11:19:18.559Z,3.85
2017-12-17T11:21:46.309Z,5.03
2017-12-17T11:24:13.955Z,5.18
2017-12-17T11:26:41.581Z,5.45
2017-12-17T11:29:10.010Z,5.28
2017-12-17T11:31:39.274Z,4.95
2017-12-17T11:34:07.219Z,5.90
2017-12-17T11:36:34.865Z,4.93
2017-12-17T11:39:02.481Z,5.40
2017-12-17T11:41:30.129Z,6.93
2017-12-17T11:43:57.751Z,4.80
2017-12-17T11:46:25.537Z,5.62
2017-12-17T11:48:53.196Z,7.70
2017-12-17T11:51:20.810Z,5.68
2017-12-17T11:53:49.275Z,7.37
2017-12-17T11:56:16.886Z,8.40
2017-12-17T11:58:44.506Z,9.68
2017-12-17T12:01:12.183Z,10.05
2017-12-17T12:03:39.789Z,11.57
2017-12-17T12:06:07.442Z,8.88
2017-12-17T12:08:35.064Z,11.10
2017-12-17T12:11:02.713Z,9.93
2017-12-17T12:13:30.402Z,11.18
2017-12-17T12:15:58.046Z,11.05
2017-12-17T12:18:25.705Z,14.35
2017-12-17T12:20:53.370Z,11.70
2017-12-17T12:23:21.137Z,15.02
2017-12-17T12:25:48.822Z,11.80
2017-12-17T12:30:50.394Z,14.07
2017-12-17T12:33:18.018Z,18.42
2017-12-17T12:35:46.248Z,16.33
2017-12-17T12:38:13.933Z,14.85
2017-12-17T12:40:41.578Z,18.27
2017-12-17T12:43:09.233Z,17.15
2017-12-17T12:45:36.843Z,9.35
2017-12-17T12:48:04.458Z,9.98
2017-12-17T12:50:32.877Z,13.07
2017-12-17T12:53:00.499Z,19.80
2017-12-17T12:55:28.168Z,12.73
2017-12-17T12:57:55.793Z,12.98
2017-12-17T13:00:23.422Z,13.18
2017-12-17T13:02:51.108Z,12.07
2017-12-17T13:05:18.777Z,11.68
2017-12-17T13:07:46.447Z,12.95
2017-12-17T13:10:14.077Z,9.82
2017-12-17T13:12:41.790Z,13.10
2017-12-17T13:15:10.263Z,13.50
2017-12-17T13:17:37.904Z,16.80
2017-12-17T13:20:05.621Z,11.40
2017-12-17T13:22:33.255Z,11.55
2017-12-17T13:25:01.702Z,12.00
2017-12-17T13:27:29.385Z,11.10
2017-12-17T13:29:57.006Z,10.20
2017-12-17T13:32:25.672Z,11.18
2017-12-17T13:34:53.462Z,13.27
2017-12-17T13:37:21.311Z,10.63
2017-12-17T13:39:51.454Z,8.35
2017-12-17T13:42:19.857Z,8.63
2017-12-17T13:44:47.528Z,10.50
2017-12-17T13:47:15.165Z,10.60
2017-12-17T13:49:43.199Z,9.43
2017-12-17T13:52:11.673Z,9.60
2017-12-17T13:54:39.298Z,12.55
2017-12-17T13:57:07.728Z,15.02
2017-12-17T13:59:35.342Z,12.02
2017-12-17T14:02:02.976Z,8.40
2017-12-17T14:04:31.743Z,8.20
2017-12-17T14:07:06.263Z,8.82
2017-12-17T14:09:34.541Z,9.15
2017-12-17T14:12:02.188Z,10.00
2017-12-17T14:14:29.803Z,8.52
2017-12-17T14:16:58.479Z,8.68
2017-12-17T14:19:26.898Z,7.47
2017-12-17T14:21:54.550Z,6.68
2017-12-17T14:24:22.173Z,9.93
2017-12-17T14:26:49.864Z,8.02
2017-12-17T14:29:17.494Z,12.20
2017-12-17T14:31:45.642Z,12.32
2017-12-17T14:34:13.305Z,12.10
2017-12-17T14:36:40.919Z,9.95
2017-12-17T14:39:08.581Z,12.23
2017-12-17T14:41:36.437Z,12.88
2017-12-17T14:44:04.106Z,13.02
2017-12-17T14:46:31.779Z,10.88
2017-12-17T14:49:00.192Z,9.63
2017-12-17T14:51:27.937Z,13.65
2017-12-17T14:53:55.550Z,12.10
2017-12-17T14:56:23.186Z,12.02
2017-12-17T14:58:50.838Z,9.32
2017-12-17T15:01:18.446Z,10.10
2017-12-17T15:03:46.115Z,13.10
2017-12-17T15:06:13.721Z,10.25
2017-12-17T15:08:41.346Z,12.77
2017-12-17T15:11:08.998Z,19.83
2017-12-17T15:13:36.682Z,14.00
2017-12-17T15:16:04.349Z,14.57
2017-12-17T15:18:31.974Z,18.65
2017-12-17T15:20:59.596Z,19.80
2017-12-17T15:23:27.250Z,12.65
2017-12-17T15:25:54.954Z,15.00
2017-12-17T15:28:22.618Z,9.68
2017-12-17T15:30:53.274Z,9.27
2017-12-17T15:33:20.911Z,5.78
2017-12-17T15:35:48.554Z,7.75
2017-12-17T15:38:16.175Z,6.82
2017-12-17T15:40:43.829Z,9.48
2017-12-17T15:43:11.453Z,8.10
2017-12-17T15:45:39.074Z,7.45
2017-12-17T15:48:07.499Z,7.93
2017-12-17T15:50:35.109Z,11.65
2017-12-17T15:53:02.754Z,10.40
2017-12-17T15:55:30.363Z,6.93
2017-12-17T15:57:58.030Z,9.65
2017-12-17T16:00:26.446Z,11.70
2017-12-17T16:02:54.077Z,8.25
2017-12-17T16:05:21.721Z,8.45
2017-12-17T16:07:49.330Z,9.02
2017-12-17T16:10:16.948Z,8.32
2017-12-17T16:12:44.581Z,9.98
2017-12-17T16:15:12.186Z,9.98
2017-12-17T16:17:39.851Z,15.57
2017-12-17T16:20:07.485Z,12.90
2017-12-17T16:22:35.117Z,12.80
2017-12-17T16:25:02.760Z,14.00
2017-12-17T16:27:31.210Z,11.98
2017-12-17T16:29:58.874Z,16.50
2017-12-17T16:32:26.522Z,12.13
2017-12-17T16:34:54.893Z,9.57
2017-12-17T16:37:22.551Z,11.57
2017-12-17T16:39:50.186Z,13.25
2017-12-17T16:42:17.894Z,13.65
2017-12-17T16:44:45.646Z,10.75
2017-12-17T16:47:13.270Z,11.52
2017-12-17T16:49:41.336Z,11.77
2017-12-17T16:52:09.001Z,16.30
2017-12-17T16:54:36.677Z,15.90
2017-12-17T16:57:04.293Z,8.73
2017-12-17T16:59:31.922Z,16.02
2017-12-17T17:01:59.586Z,14.77
2017-12-17T17:04:27.258Z,14.30
2017-12-17T17:06:54.910Z,12.48
2017-12-17T17:09:22.537Z,14.32
2017-12-17T17:11:50.937Z,15.32
2017-12-17T17:14:18.626Z,11.45
2017-12-17T17:16:46.291Z,13.73
2017-12-17T17:19:13.963Z,10.00
2017-12-17T17:21:41.698Z,14.43
2017-12-17T17:24:10.085Z,13.43
2017-12-17T17:26:37.746Z,13.35
2017-12-17T17:29:05.437Z,14.45
2017-12-17T17:31:33.106Z,18.10
2017-12-17T17:34:01.554Z,13.70
2017-12-17T17:36:29.178Z,12.00
2017-12-17T17:38:56.855Z,11.95
2017-12-17T17:41:24.482Z,13.18
2017-12-17T17:43:52.155Z,12.32
2017-12-17T17:46:19.756Z,9.88
2017-12-17T17:48:47.393Z,10.88
2017-12-17T17:51:15.055Z,14.77
2017-12-17T17:53:42.690Z,11.85
2017-12-17T17:56:10.356Z,12.95
2017-12-17T17:58:37.973Z,16.50
2017-12-17T18:01:05.604Z,15.68
2017-12-17T18:03:33.267Z,12.63
2017-12-17T18:06:03.076Z,14.45
2017-12-17T18:08:31.784Z,13.60
2017-12-17T18:10:59.430Z,16.17
2017-12-17T18:13:32.777Z,13.70
2017-12-17T18:16:01.852Z,16.50
2017-12-17T18:18:29.513Z,14.18
2017-12-17T18:20:57.193Z,14.43
2017-12-17T18:23:25.594Z,13.68
2017-12-17T18:25:53.296Z,11.70
2017-12-17T18:28:21.689Z,14.68
2017-12-17T18:30:49.650Z,18.75
2017-12-17T18:33:18.281Z,14.60
2017-12-17T18:35:46.703Z,19.15
2017-12-17T18:38:15.550Z,17.12
2017-12-17T18:40:43.680Z,15.15
2017-12-17T18:43:12.551Z,12.75
2017-12-17T18:45:46.633Z,16.58
2017-12-17T18:48:14.488Z,12.15
2017-12-17T18:50:42.151Z,15.45
2017-12-17T18:53:09.765Z,15.10
2017-12-17T18:55:37.381Z,17.83
2017-12-17T18:58:05.060Z,14.43
2017-12-17T19:00:32.681Z,16.52
2017-12-17T19:03:00.337Z,14.77
2017-12-17T19:05:28.026Z,15.23
2017-12-17T19:07:55.662Z,14.32
2017-12-17T19:10:23.323Z,14.80
2017-12-17T19:12:51.717Z,16.73
2017-12-17T19:15:20.005Z,16.17
2017-12-17T19:17:47.621Z,13.93
2017-12-17T19:20:15.252Z,12.82
2017-12-17T19:22:43.702Z,13.50
2017-12-17T19:25:11.321Z,19.83
2017-12-17T19:27:38.985Z,12.37
2017-12-17T19:30:06.613Z,23.25
2017-12-17T19:32:34.246Z,10.90
2017-12-17T19:35:01.901Z,13.15
2017-12-17T19:37:29.549Z,11.80
2017-12-17T19:39:57.210Z,16.27
2017-12-17T19:42:24.841Z,14.05
2017-12-17T19:44:52.456Z,14.38
2017-12-17T19:47:20.135Z,15.55
2017-12-17T19:49:47.779Z,14.30
2017-12-17T19:52:15.477Z,15.07
2017-12-17T19:54:43.874Z,15.75
2017-12-17T19:57:11.503Z,16.87
2017-12-17T19:59:39.168Z,18.30
2017-12-17T20:02:06.799Z,13.98
2017-12-17T20:04:34.575Z,13.00
2017-12-17T20:07:02.230Z,12.90
2017-12-17T20:09:29.895Z,15.02
2017-12-17T20:11:57.554Z,14.80
2017-12-17T20:14:25.199Z,13.65
2017-12-17T20:16:52.882Z,16.40
2017-12-17T20:19:20.523Z,15.90
2017-12-17T20:21:48.150Z,14.82
2017-12-17T20:24:16.580Z,16.42
2017-12-17T20:26:44.210Z,17.55
2017-12-17T20:29:13.705Z,19.12
2017-12-17T20:31:39.650Z,22.67
2017-12-17T20:34:07.274Z,14.13
2017-12-17T20:36:34.934Z,18.48
2017-12-17T20:39:02.587Z,20.20
2017-12-17T20:41:30.319Z,17.17
2017-12-17T20:43:57.979Z,19.70
2017-12-17T20:46:25.627Z,19.05
2017-12-17T20:48:53.298Z,17.23
2017-12-17T20:51:21.967Z,15.40
2017-12-17T20:53:49.664Z,18.67
2017-12-17T20:56:17.346Z,17.77
2017-12-17T20:58:45.058Z,14.85
2017-12-17T21:01:12.726Z,21.60
2017-12-17T21:03:40.456Z,19.67
2017-12-17T21:06:08.260Z,18.10
2017-12-17T21:08:40.010Z,14.32
2017-12-17T21:11:07.666Z,15.35
2017-12-17T21:13:35.282Z,13.60
2017-12-17T21:16:03.657Z,13.32
2017-12-17T21:18:32.670Z,13.75
2017-12-17T21:21:00.311Z,15.98
2017-12-17T21:23:28.005Z,14.35
2017-12-17T21:25:55.626Z,13.13
2017-12-17T21:28:25.026Z,22.77
2017-12-17T21:30:54.739Z,17.25
2017-12-17T21:33:25.051Z,13.62
2017-12-17T21:35:52.718Z,17.92
2017-12-17T21:38:21.102Z,13.38
2017-12-17T21:40:48.801Z,17.20
2017-12-17T21:43:16.783Z,13.50
2017-12-17T21:45:45.273Z,12.55
2017-12-17T21:48:14.166Z,10.52
2017-12-17T21:50:41.827Z,11.20
2017-12-17T21:53:11.134Z,12.65
2017-12-17T21:55:39.443Z,11.93
2017-12-17T21:58:07.770Z,10.00
2017-12-17T22:00:37.964Z,11.23
2017-12-17T22:03:07.159Z,11.07
2017-12-17T22:05:37.553Z,11.02
2017-12-17T22:08:05.247Z,11.50
2017-12-17T22:10:33.667Z,11.43
2017-12-17T22:13:01.334Z,12.02
2017-12-17T22:15:29.821Z,12.70
2017-12-17T22:17:57.535Z,14.10
2017-12-17T22:20:25.162Z,12.13
2017-12-17T22:22:52.781Z,12.07
2017-12-17T22:25:21.789Z,10.75
2017-12-17T22:27:49.413Z,11.43
2017-12-17T22:30:17.116Z,14.07
2017-12-17T22:32:44.751Z,13.25
2017-12-17T22:35:13.146Z,12.82
2017-12-17T22:37:40.809Z,16.77
2017-12-17T22:40:08.424Z,15.57
2017-12-17T22:42:36.083Z,22.33
2017-12-17T22:45:03.726Z,21.80
2017-12-17T22:47:32.347Z,19.87
2017-12-17T22:49:59.989Z,25.08
2017-12-17T22:52:27.629Z,21.65
2017-12-17T22:54:55.606Z,25.10
2017-12-17T22:57:23.937Z,20.80
2017-12-17T22:59:51.669Z,15.98
2017-12-17T23:02:19.326Z,15.10
2017-12-17T23:04:46.962Z,13.90
2017-12-17T23:07:14.632Z,19.27
2017-12-17T23:09:42.346Z,14.65
2017-12-17T23:12:09.969Z,19.80
2017-12-17T23:14:38.400Z,14.57
2017-12-17T23:17:06.024Z,20.12
2017-12-17T23:19:33.685Z,20.77
2017-12-17T23:22:01.378Z,22.42
2017-12-17T23:24:29.766Z,27.48
2017-12-17T23:26:57.425Z,21.55
2017-12-17T23:29:25.053Z,23.70
2017-12-17T23:31:52.701Z,14.43
2017-12-17T23:34:20.319Z,16.75
2017-12-17T23:36:47.947Z,12.43
2017-12-17T23:39:15.701Z,14.82
2017-12-17T23:41:43.330Z,16.85
2017-12-17T23:44:11.004Z,23.27
2017-12-17T23:46:38.716Z,24.20
2017-12-17T23:49:06.333Z,25.83
2017-12-17T23:51:33.987Z,15.38
2017-12-17T23:54:01.663Z,15.05
2017-12-17T23:56:29.338Z,14.68
2017-12-17T23:58:57.738Z,16.92
